Ronco, PA

9:03 AM EDT on May 27, 2015 (GMT -0400)
Morgantown Municipal-Hart | | Change Station
CLOSE
Current Station
Airport
Location: Morgantown,
Elevation: 1247 ft
Nearby Weather Stations

Elev 1247 ft 39.64 °N, 79.92 °W | Updated 10 minutes ago

Rain
Rain
67 °F
Feels Like 67 °F
N
4
Wind Variable Wind from SSW

Today
High -- | Low -- °F
--% Chance of Precip.
Yesterday
High -- | Low -- °F
Precip. -- in
5:55 AM 8:38 PM
Waxing Gibbous, 67% visible
Pressure 30.17 in
Visibility 5.0 miles
Clouds Mostly Cloudy 1200 ft
Mostly Cloudy 2800 ft
Overcast 7000 ft
Dew Point 64 °F
Humidity 90%
Rainfall 0.10 in
Snow Depth Not available.
UV 1 out of 12
Pollen 7.90 out of 12
Air Quality Not available.
Flu Activity Sporadic
METAR KMGW 271253Z 20003KT 5SM -RA BR BKN012 BKN028 OVC070 19/18 A3019 RMK AO2 SLP216 P0006 T01940178

More Conditions Fewer Conditions

Pressure 30.17 in
Visibility 5.0 miles
Clouds Mostly Cloudy 1200 ft
Mostly Cloudy 2800 ft
Overcast 7000 ft
Dew Point 64 °F
Humidity 90%
Rainfall 0.10 in
Snow Depth Not available.
UV 1 out of 12
Pollen 7.90 out of 12
Air Quality Not available.
Flu Activity Sporadic
METAR KMGW 271253Z 20003KT 5SM -RA BR BKN012 BKN028 OVC070 19/18 A3019 RMK AO2 SLP216 P0006 T01940178

More Conditions Fewer Conditions

10-Day Weather Forecast

Almanac

Astronomy

May. 27, 2015 Rise Set
Actual Time
Civil Twilight
Nautical Twilight
Astronomical Twilight
Moon
Length of Visible Light
Length of Day
Tomorrow will be .
, % of the Moon is Illuminated

Today's Extremes

State Highs State Lows

Community

WunderPhotos

Upload Photos

1,824,664 photos uploaded!

WunderBlogs® & News

Nearby

Air Quality

  Air Quality AQ Index Pollutant
Not available.

Snow Depth

Station Depth Elevation

Earthquake Activity

City Distance Mag. Time & Date
Minimum magnitude displayed is 2.5.

Coastal Water Temperatures

Place Temperature

Stations

Nearby Weather Stations

Station Location Temp. Windchill Dew Point Humidity Wind Precip. Elev Updated Type